Terminal Aerodrome Forecast
Issued by NWS St Louis, MO

Home | Current Version | Previous Version | Text Only | Print | Product List | Glossary On
Versions: 1 2 3 4 5 6 7 8 9 10 11 12 13 14 15 16 17 18 19 20 21 22 23 24
849
FTUS43 KLSX 050904 CCA
TAFCOU
TAF COR
KCOU 050904Z 0509/0606 VRB03KT 1SM BR VV002
      TEMPO 0509/0513 1/2SM FG VV001
     FM051300 VRB03KT 1SM BR BKN003
     FM051500 16006KT P6SM SCT250=

USA.gov is the U.S. government's official web portal to all federal, state and local government web resources and services.